Time;durP1;ratioP1;P1;durP2;ratioP2;P2;SDS_P1;SDS_P2;PMS_P1;PMS_P2;Temp;Humidity;BMP_temperature;BMP_pressure;BME280_temperature;BME280_humidity;BME280_pressure;Samples;Min_cycle;Max_cycle;Signal;HPM_P1;HPM_P2
2020/12/26 00:01:20;;;;;;;8.82;7.05;;;;;;;25.95;20.77;93908.44;5074549;28;20045;-48
2020/12/26 00:03:48;;;;;;;8.85;7.20;;;;;;;26.27;20.16;93910.06;5060321;28;20060;-48
2020/12/26 00:06:19;;;;;;;9.07;7.35;;;;;;;26.02;20.33;93913.75;5058287;28;20463;-48
2020/12/26 00:08:47;;;;;;;9.57;7.03;;;;;;;25.17;21.42;93923.03;5054263;28;20049;-50
2020/12/26 00:11:17;;;;;;;7.05;5.35;;;;;;;24.94;22.67;93927.28;5054579;28;20056;-49
2020/12/26 00:13:46;;;;;;;8.68;6.47;;;;;;;24.73;23.17;93922.78;5054484;28;20455;-50
2020/12/26 00:16:13;;;;;;;6.25;5.03;;;;;;;24.81;23.15;93918.94;5071924;28;20056;-47
2020/12/26 00:18:45;;;;;;;9.18;5.18;;;;;;;24.86;23.14;93916.63;5074502;28;20060;-48
2020/12/26 00:21:14;;;;;;;7.63;6.15;;;;;;;24.81;22.91;93938.41;5073957;28;20052;-49
2020/12/26 00:23:41;;;;;;;10.55;8.13;;;;;;;24.44;23.11;93936.19;5074152;28;20336;-48
2020/12/26 00:26:09;;;;;;;10.63;8.73;;;;;;;24.41;22.85;93915.59;5073906;28;20052;-50
2020/12/26 00:28:36;;;;;;;11.85;8.75;;;;;;;24.56;23.08;93940.38;5066597;28;20044;-49
2020/12/26 00:31:04;;;;;;;10.93;8.63;;;;;;;25.43;21.67;93942.38;5053778;28;20045;-49
2020/12/26 00:33:31;;;;;;;9.85;7.68;;;;;;;25.92;20.85;93943.28;5064885;28;20055;-49
2020/12/26 00:36:00;;;;;;;10.10;8.15;;;;;;;24.88;22.19;93956.34;5073169;28;20062;-51
2020/12/26 00:38:27;;;;;;;10.85;8.85;;;;;;;24.87;22.27;93955.56;5073386;28;20394;-57
2020/12/26 00:40:54;;;;;;;11.45;8.80;;;;;;;24.22;22.92;93948.03;5073479;28;20106;-51
2020/12/26 00:43:21;;;;;;;10.02;7.90;;;;;;;24.64;22.55;93946.47;5055394;28;20051;-48
2020/12/26 00:45:48;;;;;;;8.80;7.45;;;;;;;24.12;23.22;93943.44;5066849;28;20052;-49
2020/12/26 00:48:16;;;;;;;9.60;7.97;;;;;;;24.05;23.52;93938.09;5073180;28;20802;-52
2020/12/26 00:50:43;;;;;;;9.32;8.10;;;;;;;24.34;22.99;93939.63;5055774;28;20056;-52
2020/12/26 00:53:10;;;;;;;10.25;7.75;;;;;;;25.05;21.96;93949.44;5073380;28;20454;-51
2020/12/26 00:55:38;;;;;;;11.40;8.20;;;;;;;24.50;22.60;93948.03;5072977;28;20048;-51
2020/12/26 00:58:05;;;;;;;8.65;7.43;;;;;;;24.41;22.76;93960.22;5073296;28;20126;-50
2020/12/26 01:00:33;;;;;;;8.63;7.20;;;;;;;25.07;21.86;93958.59;5055695;28;20102;-49
2020/12/26 01:03:27;;;;;;;;;;;;;;;24.01;23.04;93948.00;5031603;28;20045;-50
2020/12/26 01:05:55;;;;;;;9.63;7.35;;;;;;;24.59;22.38;93951.06;5067241;28;19923;-50
2020/12/26 01:08:22;;;;;;;9.77;7.28;;;;;;;25.00;22.02;93947.94;5073643;28;20051;-49
2020/12/26 01:10:49;;;;;;;8.68;6.95;;;;;;;24.27;23.00;93955.66;5080578;28;20056;-50
2020/12/26 01:13:18;;;;;;;8.27;7.32;;;;;;;24.03;23.30;93957.16;5079849;28;20049;-50
2020/12/26 01:15:45;;;;;;;10.05;7.35;;;;;;;23.94;23.41;93960.22;5072929;28;20104;-52
2020/12/26 01:18:12;;;;;;;8.82;7.32;;;;;;;23.80;23.66;93949.50;5060207;28;20459;-51
2020/12/26 01:20:39;;;;;;;10.40;7.05;;;;;;;23.75;23.76;93949.13;5060301;28;20048;-49
2020/12/26 01:23:06;;;;;;;8.80;7.18;;;;;;;25.02;22.16;93945.63;5060333;28;20052;-51
2020/12/26 01:25:33;;;;;;;9.00;7.93;;;;;;;24.83;22.29;93938.03;5060524;28;20466;-49
2020/12/26 01:28:00;;;;;;;9.25;7.60;;;;;;;24.81;22.48;93948.34;5059924;28;20059;-50
2020/12/26 01:30:27;;;;;;;9.77;7.57;;;;;;;24.83;22.76;93946.03;5059986;28;20051;-52
2020/12/26 01:32:54;;;;;;;10.25;7.60;;;;;;;24.60;23.12;93935.78;5066508;28;20051;-54
2020/12/26 01:35:21;;;;;;;9.73;7.25;;;;;;;24.18;23.54;93941.91;5080046;28;20056;-50
2020/12/26 01:37:48;;;;;;;8.73;7.10;;;;;;;24.45;23.66;93929.69;5079828;28;20040;-51
2020/12/26 01:40:15;;;;;;;7.95;6.70;;;;;;;23.70;24.72;93923.59;5079996;28;20057;-49
2020/12/26 01:42:42;;;;;;;8.00;6.60;;;;;;;24.30;24.15;93928.19;5059886;28;20041;-51
2020/12/26 01:45:09;;;;;;;8.20;6.90;;;;;;;24.12;24.12;93927.41;5066092;28;20055;-53
2020/12/26 01:47:37;;;;;;;10.07;7.10;;;;;;;24.98;23.24;93928.03;5079855;28;20378;-50
2020/12/26 01:50:04;;;;;;;8.23;7.20;;;;;;;25.71;21.92;93926.19;5058627;28;20052;-50
2020/12/26 01:52:31;;;;;;;9.90;8.10;;;;;;;24.20;23.67;93918.25;5059993;28;20474;-53
2020/12/26 01:54:59;;;;;;;8.23;7.13;;;;;;;23.74;24.17;93912.91;5064177;28;20052;-52
2020/12/26 01:57:34;;;;;;;9.85;8.00;;;;;;;23.65;24.28;93918.59;5058502;28;20071;-50
2020/12/26 02:00:04;;;;;;;10.80;8.45;;;;;;;24.27;23.53;93912.91;5042233;28;20052;-51
2020/12/26 02:02:44;;;;;;;10.77;9.00;;;;;;;23.73;24.49;93909.50;5064921;28;20044;-50
2020/12/26 02:05:11;;;;;;;9.63;7.90;;;;;;;24.31;23.52;93918.28;5079428;28;20056;-50
2020/12/26 02:07:38;;;;;;;10.13;7.90;;;;;;;24.11;24.06;93905.28;5079840;28;20040;-51
2020/12/26 02:10:06;;;;;;;11.48;7.82;;;;;;;24.21;23.82;93922.47;5079626;28;20048;-50
2020/12/26 02:12:33;;;;;;;10.27;7.88;;;;;;;24.31;23.60;93913.69;5079776;28;20442;-52
2020/12/26 02:15:00;;;;;;;8.60;7.60;;;;;;;24.72;22.97;93915.88;5074923;28;20056;-50
2020/12/26 02:17:31;;;;;;;9.80;8.35;;;;;;;23.75;24.40;93922.44;5079692;28;20044;-52
2020/12/26 02:19:58;;;;;;;9.50;7.40;;;;;;;23.64;24.52;93925.09;5069167;28;20055;-51
2020/12/26 02:22:25;;;;;;;9.73;7.85;;;;;;;23.22;25.32;93923.84;5055842;28;20072;-50
2020/12/26 02:24:52;;;;;;;9.23;8.23;;;;;;;23.12;25.43;93924.53;5059027;28;20052;-50
2020/12/26 02:27:19;;;;;;;10.38;9.27;;;;;;;22.84;25.76;93914.53;5076402;28;20052;-49
2020/12/26 02:29:46;;;;;;;11.23;8.45;;;;;;;22.87;25.65;93924.44;5076152;28;20041;-51
2020/12/26 02:32:14;;;;;;;10.43;8.02;;;;;;;22.59;26.16;93917.03;5074321;28;20053;-50
2020/12/26 02:34:41;;;;;;;10.73;8.48;;;;;;;22.54;25.98;93906.75;5076259;28;20056;-48
2020/12/26 02:37:08;;;;;;;10.50;8.25;;;;;;;23.21;25.16;93911.66;5076057;28;20052;-50
2020/12/26 02:39:35;;;;;;;10.57;8.35;;;;;;;23.16;25.09;93913.88;5067753;28;20044;-50
2020/12/26 02:42:02;;;;;;;11.57;8.60;;;;;;;23.53;25.10;93922.38;5056203;28;20056;-50
2020/12/26 02:44:29;;;;;;;9.93;8.82;;;;;;;22.74;25.82;93924.00;5056146;28;20403;-49
2020/12/26 02:46:56;;;;;;;12.45;9.77;;;;;;;22.67;25.87;93918.63;5074800;28;20462;-47
2020/12/26 02:49:23;;;;;;;9.65;8.45;;;;;;;23.24;25.83;93939.47;5055923;28;20049;-50
2020/12/26 02:51:51;;;;;;;13.85;9.30;;;;;;;22.64;26.66;93934.56;5055974;28;20375;-50
2020/12/26 02:54:18;;;;;;;10.93;9.02;;;;;;;22.63;27.12;93923.16;5056022;28;20075;-47
2020/12/26 02:56:45;;;;;;;11.23;9.20;;;;;;;22.75;26.83;93930.84;5072876;28;20064;-50
2020/12/26 02:59:12;;;;;;;10.90;8.70;;;;;;;22.47;27.94;93946.66;5075782;28;20044;-47
2020/12/26 03:01:40;;;;;;;9.52;8.23;;;;;;;24.05;25.96;93946.88;5075785;28;20060;-50
2020/12/26 03:04:07;;;;;;;9.25;7.80;;;;;;;23.12;26.91;93948.53;5074991;28;20048;-52
2020/12/26 03:06:34;;;;;;;9.77;7.90;;;;;;;23.57;26.63;93938.41;5075399;28;20052;-53
2020/12/26 03:09:01;;;;;;;8.10;7.30;;;;;;;23.07;27.62;93927.59;5075387;28;20052;-53
2020/12/26 03:11:28;;;;;;;11.82;7.95;;;;;;;22.72;28.09;93933.50;5075421;28;20053;-51
2020/12/26 03:13:55;;;;;;;10.10;7.55;;;;;;;22.50;28.54;93940.59;5057200;28;20048;-51
2020/12/26 03:16:23;;;;;;;8.70;7.55;;;;;;;22.60;28.62;93934.56;5068656;28;20055;-47
2020/12/26 03:18:50;;;;;;;9.73;7.82;;;;;;;22.38;29.42;93931.03;5075152;28;20465;-51
2020/12/26 03:21:17;;;;;;;9.25;7.78;;;;;;;22.30;29.21;93948.06;5075318;28;20051;-52
2020/12/26 03:23:44;;;;;;;9.32;8.05;;;;;;;22.34;28.90;93958.75;5075260;28;20750;-52
2020/12/26 03:26:11;;;;;;;8.48;7.30;;;;;;;22.28;29.05;93952.22;5074982;28;20048;-51
2020/12/26 03:28:38;;;;;;;9.57;7.80;;;;;;;22.60;28.90;93953.19;5074933;28;20463;-52
2020/12/26 03:31:05;;;;;;;9.25;7.85;;;;;;;22.48;28.63;93953.53;5075281;28;20051;-51
2020/12/26 03:33:32;;;;;;;8.35;7.47;;;;;;;22.29;29.32;93967.06;5061911;28;20056;-54
2020/12/26 03:35:59;;;;;;;8.07;7.28;;;;;;;22.11;29.31;93953.63;5063118;28;20059;-51
2020/12/26 03:38:26;;;;;;;8.70;6.80;;;;;;;22.23;29.49;93952.59;5055124;28;20395;-55
2020/12/26 03:40:53;;;;;;;7.05;6.35;;;;;;;21.93;30.00;93956.13;5055060;28;20053;-50
2020/12/26 03:43:20;;;;;;;7.43;6.63;;;;;;;22.67;28.69;93961.25;5055094;28;20053;-50
2020/12/26 03:45:47;;;;;;;8.15;6.72;;;;;;;22.45;28.58;93955.03;5056839;28;20455;-49
2020/12/26 03:48:15;;;;;;;7.28;6.40;;;;;;;22.24;29.10;93959.44;5054704;28;20052;-50
2020/12/26 03:50:42;;;;;;;7.38;6.60;;;;;;;22.11;29.16;93957.03;5054912;28;20045;-51
2020/12/26 03:53:09;;;;;;;7.32;6.60;;;;;;;22.19;29.16;93957.88;5054772;28;20051;-50
2020/12/26 03:55:36;;;;;;;8.10;7.30;;;;;;;22.18;28.94;93955.59;5060259;28;20056;-50
2020/12/26 03:58:03;;;;;;;7.72;6.93;;;;;;;21.84;29.56;93948.44;5074815;28;20060;-54
2020/12/26 04:00:30;;;;;;;7.50;6.80;;;;;;;22.26;28.94;93954.50;5074653;28;20052;-50
2020/12/26 04:02:57;;;;;;;7.15;6.45;;;;;;;22.23;29.12;93955.25;5067232;28;20175;-50
2020/12/26 04:05:24;;;;;;;7.47;6.75;;;;;;;21.80;29.68;93957.50;5058187;28;20364;-50
2020/12/26 04:07:52;;;;;;;7.13;6.43;;;;;;;22.00;29.50;93955.41;5074717;28;20052;-54
2020/12/26 04:10:19;;;;;;;7.30;6.60;;;;;;;22.01;29.26;93954.28;5074654;28;20122;-50
2020/12/26 04:12:46;;;;;;;7.25;6.55;;;;;;;21.88;29.49;93958.38;5074739;28;20052;-52
2020/12/26 04:15:13;;;;;;;7.45;6.72;;;;;;;22.67;28.43;93955.94;5074465;28;20051;-49
2020/12/26 04:17:40;;;;;;;8.18;7.20;;;;;;;22.38;28.72;93965.63;5074221;28;20455;-52
2020/12/26 04:20:07;;;;;;;8.15;7.20;;;;;;;22.44;28.65;93974.03;5074314;28;20057;-50
2020/12/26 04:22:34;;;;;;;10.20;8.98;;;;;;;22.36;28.45;93956.47;5074117;28;20052;-51
2020/12/26 04:25:01;;;;;;;8.25;7.43;;;;;;;21.91;29.20;93947.75;5074110;28;20056;-71
2020/12/26 04:27:29;;;;;;;8.10;7.28;;;;;;;22.09;29.26;93938.03;5073979;28;20040;-48
2020/12/26 04:29:56;;;;;;;8.88;8.00;;;;;;;22.30;28.73;93939.31;5056354;28;20467;-54
2020/12/26 04:32:23;;;;;;;7.72;6.60;;;;;;;22.26;28.79;93935.88;5070875;28;20044;-48
2020/12/26 04:34:50;;;;;;;7.63;6.90;;;;;;;22.86;27.79;93943.47;5055026;22;20064;-50
2020/12/26 04:37:17;;;;;;;8.57;7.10;;;;;;;22.49;28.30;93933.75;5060017;28;20063;-49
2020/12/26 04:39:45;;;;;;;8.40;7.60;;;;;;;22.34;28.31;93940.09;5053318;28;20064;-50
2020/12/26 04:42:12;;;;;;;9.88;8.45;;;;;;;22.18;28.94;93944.94;5035824;28;20053;-51
2020/12/26 04:44:40;;;;;;;9.80;7.72;;;;;;;22.55;27.89;93931.50;5018610;28;20052;-52
2020/12/26 04:47:12;;;;;;;10.07;9.07;;;;;;;22.13;28.63;93948.72;5035642;28;20048;-50
2020/12/26 04:49:40;;;;;;;9.30;7.53;;;;;;;22.12;28.79;93937.31;5052638;28;20057;-52
2020/12/26 04:52:10;;;;;;;9.38;8.40;;;;;;;22.01;29.07;93938.31;5053238;28;20045;-51
2020/12/26 04:54:42;;;;;;;7.90;6.80;;;;;;;22.04;29.13;93929.63;5053023;28;20052;-52
2020/12/26 04:57:10;;;;;;;9.20;8.25;;;;;;;22.24;28.84;93938.13;5052267;28;20075;-53
2020/12/26 04:59:37;;;;;;;9.57;8.32;;;;;;;22.22;28.52;93935.09;5053136;28;20064;-55
2020/12/26 05:02:05;;;;;;;10.02;8.32;;;;;;;22.17;28.64;93932.78;5053576;28;20041;-51
2020/12/26 05:04:32;;;;;;;12.52;10.00;;;;;;;22.67;27.62;93937.28;5035263;28;20063;-52
2020/12/26 05:07:00;;;;;;;9.88;8.77;;;;;;;22.25;28.50;93929.00;5053500;28;20049;-51
2020/12/26 05:09:27;;;;;;;9.80;8.80;;;;;;;22.17;28.46;93932.78;5053380;28;20056;-49
2020/12/26 05:11:55;;;;;;;11.27;9.15;;;;;;;22.24;28.00;93941.56;5053691;28;20364;-54
2020/12/26 05:14:24;;;;;;;11.25;9.82;;;;;;;22.08;28.39;93936.50;5053640;28;20051;-48
2020/12/26 05:16:51;;;;;;;12.63;9.13;;;;;;;21.94;28.74;93947.00;5053409;28;20044;-51
2020/12/26 05:19:19;;;;;;;11.57;9.20;;;;;;;22.49;27.78;93939.06;5053697;28;20048;-50
2020/12/26 05:21:48;;;;;;;10.90;8.85;;;;;;;22.28;28.09;93944.25;5053422;28;20053;-50
2020/12/26 05:24:18;;;;;;;12.27;10.68;;;;;;;21.91;28.52;93931.78;5035955;28;20051;-51
2020/12/26 05:26:50;;;;;;;12.40;11.10;;;;;;;21.85;28.46;93933.22;5051283;28;20124;-49
2020/12/26 05:29:19;;;;;;;12.18;10.88;;;;;;;21.85;28.23;93946.53;5033835;28;20069;-55
2020/12/26 05:31:58;;;;;;;11.82;10.63;;;;;;;21.48;28.94;93931.38;5033563;28;20041;-52
2020/12/26 05:34:31;;;;;;;10.18;9.00;;;;;;;21.77;28.43;93942.28;5041456;28;20728;-52
2020/12/26 05:37:00;;;;;;;12.07;8.80;;;;;;;22.05;28.50;93947.13;5053120;28;20060;-50
2020/12/26 05:39:29;;;;;;;9.90;8.68;;;;;;;21.72;28.82;93929.31;5053420;28;20072;-50
2020/12/26 05:42:09;;;;;;;10.95;9.02;;;;;;;21.69;28.87;93946.03;5053388;28;20060;-49
2020/12/26 05:44:38;;;;;;;10.85;9.05;;;;;;;21.67;28.78;93933.09;5053146;28;20060;-51
2020/12/26 05:47:06;;;;;;;9.93;8.93;;;;;;;21.64;28.73;93943.69;5053175;28;20049;-52
2020/12/26 05:49:35;;;;;;;9.70;8.70;;;;;;;21.73;28.52;93962.78;5053201;28;20053;-49
2020/12/26 05:52:12;;;;;;;10.57;8.73;;;;;;;22.49;27.84;93955.06;5052551;28;20045;-51
2020/12/26 05:54:49;;;;;;;9.70;8.48;;;;;;;22.36;27.86;93945.81;5038729;28;20053;-50
2020/12/26 05:57:17;;;;;;;9.63;8.63;;;;;;;22.04;28.39;93951.69;5046147;28;20044;-51
2020/12/26 05:59:48;;;;;;;9.57;8.55;;;;;;;21.80;28.51;93938.88;5056953;28;20060;-54
2020/12/26 06:02:29;;;;;;;14.15;9.65;;;;;;;21.61;29.22;93944.44;5056830;28;20048;-51
2020/12/26 06:05:03;;;;;;;10.60;9.50;;;;;;;21.71;29.06;93960.47;5056322;28;20424;-49
2020/12/26 06:07:35;;;;;;;9.10;8.15;;;;;;;21.83;28.74;93948.78;5047651;28;20057;-49
2020/12/26 06:10:07;;;;;;;10.02;8.98;;;;;;;21.72;28.69;93966.56;5019220;28;20056;-49
2020/12/26 06:12:35;;;;;;;9.95;8.95;;;;;;;21.66;29.20;93978.69;5036712;28;20037;-51
2020/12/26 06:15:04;;;;;;;9.50;8.57;;;;;;;21.83;29.01;93983.38;5036724;28;20046;-48
2020/12/26 06:17:34;;;;;;;9.75;8.65;;;;;;;22.49;27.75;93984.34;5048048;28;20045;-45
2020/12/26 06:20:06;;;;;;;11.48;10.07;;;;;;;21.88;28.47;93984.97;5056606;28;20375;-48
2020/12/26 06:22:59;;;;;;;11.20;9.93;;;;;;;21.90;28.73;93975.50;5056513;28;20055;-53
2020/12/26 06:25:27;;;;;;;11.73;10.18;;;;;;;21.76;28.51;93983.31;5053138;28;20451;-48
2020/12/26 06:27:58;;;;;;;14.60;11.77;;;;;;;21.58;28.88;93987.69;5038701;28;20048;-48
2020/12/26 06:30:26;;;;;;;14.20;11.23;;;;;;;21.70;28.84;93984.78;5056366;28;20049;-49
2020/12/26 06:32:54;;;;;;;12.75;11.20;;;;;;;21.57;29.13;93986.16;5056546;28;20072;-51
2020/12/26 06:35:22;;;;;;;13.35;11.70;;;;;;;21.91;28.45;94000.97;5062552;28;20370;-49
2020/12/26 06:38:09;;;;;;;12.45;9.98;;;;;;;22.02;28.49;93985.84;5062632;28;20063;-51
2020/12/26 06:40:36;;;;;;;12.68;11.38;;;;;;;21.99;28.40;93975.94;5056111;28;20463;-49
2020/12/26 06:43:03;;;;;;;12.30;10.65;;;;;;;21.89;28.66;93987.25;5056201;28;20068;-52
2020/12/26 06:45:35;;;;;;;12.38;11.00;;;;;;;21.95;28.59;93993.78;5055004;28;20044;-55
2020/12/26 06:48:03;;;;;;;15.65;13.35;;;;;;;21.68;28.97;93995.03;5055694;28;20056;-54
2020/12/26 06:50:34;;;;;;;17.02;15.15;;;;;;;22.60;27.59;94003.81;5055892;28;20048;-52
2020/12/26 06:53:03;;;;;;;20.40;15.82;;;;;;;22.01;28.39;93989.63;5056058;28;20049;-49
2020/12/26 06:55:40;;;;;;;19.60;16.48;;;;;;;21.71;28.92;93987.09;5056158;28;20055;-54
2020/12/26 06:58:23;;;;;;;15.30;12.88;;;;;;;21.76;29.02;93997.38;5055900;28;20045;-52
2020/12/26 07:00:51;;;;;;;14.55;12.20;;;;;;;21.76;28.96;93994.72;5057877;28;20048;-48
2020/12/26 07:03:24;;;;;;;15.07;12.15;;;;;;;21.77;29.02;94000.81;5066053;28;20045;-55
2020/12/26 07:05:53;;;;;;;15.07;11.88;;;;;;;21.03;30.32;93995.38;5062584;28;20053;-51
2020/12/26 07:08:20;;;;;;;12.95;10.90;;;;;;;20.72;31.14;93991.19;5059008;28;20048;-53
2020/12/26 07:10:47;;;;;;;14.95;12.77;;;;;;;20.59;31.04;93983.44;5065080;28;20053;-50
2020/12/26 07:13:43;;;;;;;14.98;12.50;;;;;;;20.52;31.05;93993.16;5064437;28;20060;-50
2020/12/26 07:16:38;;;;;;;19.45;15.80;;;;;;;20.62;31.01;93976.66;5069230;28;20052;-50
2020/12/26 07:19:23;;;;;;;21.48;18.63;;;;;;;20.37;31.34;93984.22;5055747;28;20060;-54
2020/12/26 07:21:55;;;;;;;28.83;23.50;;;;;;;20.54;31.04;93996.25;5055719;28;20049;-53
2020/12/26 07:24:29;;;;;;;29.83;21.63;;;;;;;20.52;31.05;93983.31;5055499;28;20059;-55
2020/12/26 07:27:14;;;;;;;30.42;24.25;;;;;;;20.79;30.67;93991.28;5059958;28;20048;-55
2020/12/26 07:29:51;;;;;;;29.33;24.30;;;;;;;20.37;31.12;93986.09;5075199;28;20049;-56
2020/12/26 07:32:39;;;;;;;28.55;23.25;;;;;;;20.45;31.36;93996.50;5075500;28;20049;-58
2020/12/26 07:35:12;;;;;;;23.60;20.33;;;;;;;20.33;31.44;93991.38;5062492;28;20068;-55
2020/12/26 07:37:40;;;;;;;25.27;19.55;;;;;;;20.35;31.44;93998.97;5025211;28;20060;-52
2020/12/26 07:40:08;;;;;;;26.65;19.50;;;;;;;20.32;31.39;94016.38;5015515;28;20046;-52
2020/12/26 07:42:35;;;;;;;22.02;17.52;;;;;;;20.23;31.80;93987.41;5015060;28;20387;-52
2020/12/26 07:45:19;;;;;;;20.83;16.67;;;;;;;20.63;31.04;93999.41;5032220;28;20059;-53
2020/12/26 07:47:48;;;;;;;17.25;14.32;;;;;;;20.50;31.23;93992.75;5034297;28;20383;-53
2020/12/26 07:50:17;;;;;;;19.60;15.48;;;;;;;20.23;31.65;93987.41;5017006;28;20052;-54
2020/12/26 07:52:54;;;;;;;20.00;16.20;;;;;;;20.42;31.13;93994.56;5030326;28;20052;-51
2020/12/26 07:55:22;;;;;;;19.10;16.45;;;;;;;20.28;31.56;93989.75;5032466;28;20451;-52
2020/12/26 07:57:49;;;;;;;21.88;17.45;;;;;;;20.32;31.55;93990.59;5029081;28;20056;-52
2020/12/26 08:00:27;;;;;;;20.35;16.30;;;;;;;20.42;31.19;93980.53;5003326;28;20060;-53
2020/12/26 08:02:57;;;;;;;23.92;18.88;;;;;;;20.54;31.01;93990.94;5015039;28;20050;-53
2020/12/26 08:05:30;;;;;;;21.38;16.75;;;;;;;20.57;30.79;93996.31;5017285;28;20061;-53
2020/12/26 08:07:58;;;;;;;18.98;16.02;;;;;;;20.65;30.35;93997.16;5026570;28;20056;-56
2020/12/26 08:10:26;;;;;;;18.58;14.55;;;;;;;20.60;30.57;93992.94;5034734;28;20057;-54
2020/12/26 08:13:02;;;;;;;18.38;14.98;;;;;;;20.36;31.08;93995.19;5034492;28;20045;-53
2020/12/26 08:15:30;;;;;;;16.85;13.20;;;;;;;20.55;30.63;93997.75;5034459;28;20048;-55
2020/12/26 08:18:02;;;;;;;17.30;14.73;;;;;;;20.37;31.07;93991.41;5034242;28;20061;-52
2020/12/26 08:20:33;;;;;;;15.38;13.60;;;;;;;20.53;30.83;93986.75;5033936;28;20411;-52
2020/12/26 08:23:00;;;;;;;15.45;12.55;;;;;;;20.44;30.87;93978.28;5034684;28;20053;-51
2020/12/26 08:25:30;;;;;;;13.63;11.57;;;;;;;20.60;30.72;93989.50;5034411;28;20056;-51
2020/12/26 08:27:57;;;;;;;13.95;12.23;;;;;;;20.80;30.33;93996.22;5033980;28;20463;-51
2020/12/26 08:30:30;;;;;;;17.85;14.27;;;;;;;20.68;30.47;94001.75;5019945;28;20479;-51
2020/12/26 08:33:11;;;;;;;16.88;13.77;;;;;;;20.63;30.89;94004.72;5014447;28;20053;-53
2020/12/26 08:35:40;;;;;;;17.90;15.18;;;;;;;20.65;30.81;94002.47;5042895;28;20375;-52
2020/12/26 08:38:14;;;;;;;24.50;19.58;;;;;;;20.73;31.04;93998.03;5043972;28;20059;-53
2020/12/26 08:40:42;;;;;;;51.03;42.08;;;;;;;20.71;31.09;94001.03;5036403;28;20055;-54
2020/12/26 08:43:13;;;;;;;52.38;43.97;;;;;;;20.87;30.67;93998.25;5036507;28;20056;-54
2020/12/26 08:45:40;;;;;;;54.83;43.10;;;;;;;20.66;30.90;93993.38;5053878;28;20064;-56
2020/12/26 08:48:15;;;;;;;51.60;41.55;;;;;;;20.93;30.30;93997.56;5052301;28;20474;-54
2020/12/26 08:50:42;;;;;;;48.63;40.65;;;;;;;20.96;30.47;93997.97;5053164;28;20040;-53
2020/12/26 08:53:10;;;;;;;47.42;36.42;;;;;;;21.30;30.01;94004.84;5053837;28;20371;-52
2020/12/26 08:56:07;;;;;;;35.08;30.35;;;;;;;21.14;29.94;93990.97;5043236;28;20447;-50
2020/12/26 08:58:34;;;;;;;39.13;32.58;;;;;;;20.93;30.04;93981.63;5045877;28;20056;-55
2020/12/26 09:01:03;;;;;;;45.05;36.20;;;;;;;21.14;29.76;93996.31;5053694;28;20048;-53
2020/12/26 09:03:35;;;;;;;41.25;36.25;;;;;;;21.47;29.22;93992.91;5053422;28;20052;-52
2020/12/26 09:06:03;;;;;;;48.47;42.47;;;;;;;21.04;30.12;93991.59;5049898;28;20375;-53
2020/12/26 09:08:35;;;;;;;56.28;47.90;;;;;;;20.92;30.25;93980.09;5052390;28;20367;-57
2020/12/26 09:11:10;;;;;;;84.05;75.20;;;;;;;21.13;29.65;93987.56;5052847;28;20055;-53
2020/12/26 09:13:47;;;;;;;76.45;65.72;;;;;;;21.17;29.71;93992.91;5050655;28;20444;-50
2020/12/26 09:16:17;;;;;;;78.47;68.20;;;;;;;21.47;29.20;93988.34;5036509;28;20060;-49
2020/12/26 09:18:45;;;;;;;71.25;59.15;;;;;;;21.49;29.26;93991.41;5052636;28;20056;-53
2020/12/26 09:21:26;;;;;;;66.75;58.03;;;;;;;21.27;29.47;93978.25;5052701;28;20057;-51
2020/12/26 09:23:55;;;;;;;50.45;42.13;;;;;;;21.40;29.49;93982.97;5052650;28;20052;-53
2020/12/26 09:26:26;;;;;;;51.83;42.90;;;;;;;21.50;29.59;93987.63;5052816;28;20486;-52
2020/12/26 09:28:58;;;;;;;46.67;35.38;;;;;;;20.94;30.62;93979.72;5052559;28;20053;-52
2020/12/26 09:31:27;;;;;;;32.85;27.77;;;;;;;21.27;29.96;93962.28;5056053;28;20056;-49
2020/12/26 09:33:56;;;;;;;27.02;23.20;;;;;;;21.42;29.67;93970.06;5056749;28;20088;-53
2020/12/26 09:36:25;;;;;;;24.15;20.02;;;;;;;21.57;29.42;93964.88;5043539;28;20052;-55
2020/12/26 09:38:54;;;;;;;20.73;17.70;;;;;;;21.75;28.95;93977.25;5054282;28;20044;-51
2020/12/26 09:41:23;;;;;;;16.48;14.57;;;;;;;21.47;29.56;93977.72;5057817;28;20526;-54
2020/12/26 09:43:54;;;;;;;17.10;15.25;;;;;;;21.35;29.92;93970.00;5057576;28;20053;-52
2020/12/26 09:46:22;;;;;;;21.15;17.35;;;;;;;21.24;30.05;93969.88;5057694;28;20060;-57
2020/12/26 09:48:50;;;;;;;21.58;18.83;;;;;;;21.68;29.19;93976.41;5041200;28;20353;-52
2020/12/26 09:51:21;;;;;;;20.80;17.33;;;;;;;21.43;29.62;93982.25;5037174;28;20083;-53
2020/12/26 09:53:48;;;;;;;22.75;20.13;;;;;;;21.35;30.12;93985.19;5037091;28;20064;-52
2020/12/26 09:56:16;;;;;;;37.22;29.98;;;;;;;21.43;29.81;93968.94;5037147;28;20060;-49
2020/12/26 09:58:44;;;;;;;44.38;35.22;;;;;;;21.50;29.75;93969.00;5036900;28;20049;-51
2020/12/26 10:01:16;;;;;;;40.58;33.55;;;;;;;21.78;29.51;93975.75;5037032;28;20487;-53
2020/12/26 10:03:44;;;;;;;33.90;27.87;;;;;;;21.64;29.87;93972.97;5036930;28;20063;-51
2020/12/26 10:06:12;;;;;;;24.80;21.20;;;;;;;21.60;29.68;93974.78;5055587;28;20680;-57
2020/12/26 10:08:39;;;;;;;23.40;18.85;;;;;;;21.55;30.00;93971.34;5042719;28;20049;-52
2020/12/26 10:11:07;;;;;;;18.38;13.80;;;;;;;21.53;29.77;93980.81;5041679;28;20059;-54
2020/12/26 10:13:34;;;;;;;16.10;13.60;;;;;;;21.73;29.60;93952.13;5039414;28;20082;-66
2020/12/26 10:16:01;;;;;;;15.75;12.90;;;;;;;21.60;29.63;93964.16;5056532;28;20045;-52
2020/12/26 10:18:28;;;;;;;14.68;11.52;;;;;;;21.41;30.02;93952.59;5044681;28;20060;-53
2020/12/26 10:20:55;;;;;;;18.98;15.90;;;;;;;21.61;29.67;93966.47;5035438;28;20068;-54
2020/12/26 10:23:22;;;;;;;19.80;16.25;;;;;;;21.65;29.67;93956.63;5045745;28;20048;-49
2020/12/26 10:25:50;;;;;;;16.77;13.23;;;;;;;21.42;30.01;93961.34;5056538;28;20049;-54
2020/12/26 10:28:17;;;;;;;14.90;13.27;;;;;;;21.32;30.08;93960.06;5046524;28;20060;-52
2020/12/26 10:30:47;;;;;;;17.52;14.20;;;;;;;21.41;29.75;93952.59;5036371;28;20049;-51
2020/12/26 10:33:14;;;;;;;15.15;12.68;;;;;;;21.41;30.14;93949.94;5036481;28;20045;-52
2020/12/26 10:35:41;;;;;;;16.52;13.75;;;;;;;21.26;30.27;93960.75;5023947;28;20476;-53
2020/12/26 10:38:09;;;;;;;18.30;15.13;;;;;;;21.24;30.09;93953.16;5024908;28;20467;-52
2020/12/26 10:40:36;;;;;;;16.42;14.63;;;;;;;21.22;30.30;93958.03;5036290;28;20444;-53
2020/12/26 10:43:03;;;;;;;22.75;16.75;;;;;;;21.36;30.06;93950.25;5035620;28;20045;-44
2020/12/26 10:45:30;;;;;;;24.70;17.67;;;;;;;21.37;30.13;93965.09;5036137;28;20045;-44
2020/12/26 10:47:57;;;;;;;24.83;18.23;;;;;;;21.52;29.72;93964.09;5036054;28;20053;-44
2020/12/26 10:50:24;;;;;;;20.98;17.35;;;;;;;21.35;29.88;93972.66;5035968;28;20049;-46
2020/12/26 10:52:51;;;;;;;24.33;19.38;;;;;;;21.48;29.31;93979.25;5036023;28;20121;-44
2020/12/26 10:55:18;;;;;;;21.80;18.08;;;;;;;21.68;29.31;93973.75;5035804;28;20041;-46
2020/12/26 10:57:45;;;;;;;21.52;18.88;;;;;;;21.53;29.48;93960.31;5035693;28;20049;-48
2020/12/26 11:00:13;;;;;;;23.13;19.30;;;;;;;21.41;29.99;93970.44;5035842;28;20475;-47
2020/12/26 11:02:40;;;;;;;25.33;19.92;;;;;;;21.95;28.64;93969.81;5035823;28;20057;-52
2020/12/26 11:05:07;;;;;;;21.35;18.95;;;;;;;21.33;29.53;93966.16;5035480;28;20045;-49
2020/12/26 11:07:35;;;;;;;20.92;18.67;;;;;;;21.50;29.77;93969.00;5035561;28;20076;-47
2020/12/26 11:10:02;;;;;;;21.10;17.95;;;;;;;21.54;29.25;93982.34;5035377;28;20060;-44
2020/12/26 11:12:29;;;;;;;19.90;17.75;;;;;;;21.64;28.98;93964.97;5035962;28;20436;-45
2020/12/26 11:14:56;;;;;;;21.85;17.15;;;;;;;21.50;29.58;93970.91;5035608;28;20049;-45
2020/12/26 11:17:23;;;;;;;20.63;16.48;;;;;;;21.67;28.79;93977.53;5032284;28;20041;-46
2020/12/26 11:19:50;;;;;;;19.45;16.83;;;;;;;21.67;28.89;93965.00;5055632;28;20048;-47
2020/12/26 11:22:17;;;;;;;18.98;16.52;;;;;;;21.67;29.05;93980.19;5055534;28;20052;-47
2020/12/26 11:24:44;;;;;;;20.30;17.75;;;;;;;21.68;28.49;93976.41;5055146;28;20041;-54
2020/12/26 11:27:11;;;;;;;21.80;17.85;;;;;;;21.68;29.34;93971.09;5055514;28;20060;-49
2020/12/26 11:29:38;;;;;;;23.15;17.55;;;;;;;21.83;29.46;93962.88;5055017;28;20052;-53
2020/12/26 11:32:06;;;;;;;21.95;19.20;;;;;;;21.66;29.50;93949.41;5055206;28;20045;-49
2020/12/26 11:34:33;;;;;;;22.58;18.13;;;;;;;21.85;29.16;93949.19;5051799;28;20052;-49